Time;durP1;ratioP1;P1;durP2;ratioP2;P2;SDS_P1;SDS_P2;PMS_P1;PMS_P2;Temp;Humidity;BMP_temperature;BMP_pressure;BME280_temperature;BME280_humidity;BME280_pressure;Samples;Min_cycle;Max_cycle;Signal;HPM_P1;HPM_P2
2024/01/21 00:00:01;;;;;;;66.40;30.80;;;;;;;-8.11;71.26;102420.19;107615;1254;109062;-66
2024/01/21 00:02:58;;;;;;;66.60;30.70;;;;;;;-8.13;71.40;102421.02;107572;1253;108192;-66
2024/01/21 00:05:28;;;;;;;64.90;30.00;;;;;;;-8.16;71.21;102421.67;107614;1254;95240;-66
2024/01/21 00:07:56;;;;;;;72.70;31.00;;;;;;;-8.20;70.84;102422.13;107624;1251;95147;-67
2024/01/21 00:10:24;;;;;;;69.00;32.90;;;;;;;-8.26;70.90;102420.28;107611;1251;108914;-67
2024/01/21 00:12:52;;;;;;;78.60;32.10;;;;;;;-8.29;70.77;102421.63;107566;1251;108308;-67
2024/01/21 00:15:22;;;;;;;75.80;32.00;;;;;;;-8.30;71.16;102422.49;107579;1251;106799;-66
2024/01/21 00:17:51;;;;;;;70.10;32.00;;;;;;;-8.30;71.07;102419.71;107583;1254;95159;-65
2024/01/21 00:20:19;;;;;;;69.20;32.50;;;;;;;-8.30;71.21;102420.58;107596;1254;95914;-65
2024/01/21 00:22:47;;;;;;;81.00;35.50;;;;;;;-8.32;71.12;102420.20;107660;1254;108245;-67
2024/01/21 00:25:15;;;;;;;71.70;31.00;;;;;;;-8.36;71.00;102427.79;107591;1253;108701;-67
2024/01/21 00:27:44;;;;;;;82.60;34.00;;;;;;;-8.38;70.92;102427.59;107607;1254;108330;-67
2024/01/21 00:30:13;;;;;;;79.10;35.30;;;;;;;-8.38;70.91;102428.64;107572;1254;95217;-67
2024/01/21 00:32:41;;;;;;;77.20;34.60;;;;;;;-8.38;71.02;102431.76;107629;1254;95137;-67
2024/01/21 00:35:10;;;;;;;82.40;36.00;;;;;;;-8.38;71.07;102435.59;107582;1251;108984;-66
2024/01/21 00:37:38;;;;;;;93.40;36.60;;;;;;;-8.41;70.94;102433.79;107667;1251;107929;-66
2024/01/21 00:40:10;;;;;;;79.40;35.40;;;;;;;-8.45;71.00;102434.95;107589;1251;107822;-65
2024/01/21 00:42:38;;;;;;;75.50;34.40;;;;;;;-8.47;71.04;102429.00;107591;1251;96530;-65
2024/01/21 00:45:07;;;;;;;90.20;36.20;;;;;;;-8.45;71.37;102430.92;107596;1251;97009;-66
2024/01/21 00:47:35;;;;;;;80.80;37.20;;;;;;;-8.45;71.15;102434.23;107653;1254;110649;-66
2024/01/21 00:50:04;;;;;;;89.20;38.20;;;;;;;-8.47;71.00;102439.10;107602;1251;107164;-66
2024/01/21 00:52:33;;;;;;;89.60;35.90;;;;;;;-8.52;70.56;102438.17;107647;1251;107562;-64
2024/01/21 00:55:01;;;;;;;79.00;36.00;;;;;;;-8.57;70.58;102438.94;107654;1251;96523;-64
2024/01/21 00:57:29;;;;;;;81.50;34.60;;;;;;;-8.64;70.67;102438.83;107616;1251;97061;-66
2024/01/21 00:59:58;;;;;;;70.40;34.20;;;;;;;-8.69;70.96;102445.00;107655;1251;109551;-66
2024/01/21 01:02:26;;;;;;;85.80;37.00;;;;;;;-8.72;70.76;102448.95;107591;1251;106343;-66
2024/01/21 01:04:55;;;;;;;83.20;36.70;;;;;;;-8.71;71.07;102451.23;107603;1251;107824;-66
2024/01/21 01:07:25;;;;;;;74.60;34.70;;;;;;;-8.68;71.02;102451.79;107630;1251;96452;-66
2024/01/21 01:09:53;;;;;;;84.90;38.30;;;;;;;-8.68;70.80;102448.31;107586;1251;97007;-66
2024/01/21 01:12:21;;;;;;;80.90;38.60;;;;;;;-8.63;71.13;102451.70;107566;1251;110371;-65
2024/01/21 01:14:50;;;;;;;83.70;35.40;;;;;;;-8.61;70.87;102449.14;107589;1253;106602;-65
2024/01/21 01:17:18;;;;;;;82.50;37.40;;;;;;;-8.60;70.88;102442.73;107589;1255;108149;-65
2024/01/21 01:19:47;;;;;;;87.90;38.10;;;;;;;-8.57;70.96;102438.25;107571;1254;96475;-65
2024/01/21 01:22:15;;;;;;;77.00;36.70;;;;;;;-8.54;71.02;102439.86;107569;1254;96498;-65
2024/01/21 01:24:44;;;;;;;83.20;37.00;;;;;;;-8.54;70.76;102437.43;107614;1251;110485;-66
2024/01/21 01:27:12;;;;;;;82.50;36.10;;;;;;;-8.54;70.78;102442.48;107597;1255;107613;-66
2024/01/21 01:29:40;;;;;;;83.20;36.30;;;;;;;-8.54;70.67;102438.48;107627;1253;108952;-66
2024/01/21 01:32:09;;;;;;;79.30;35.40;;;;;;;-8.58;70.66;102439.80;107548;1253;96459;-66
2024/01/21 01:34:38;;;;;;;76.30;34.90;;;;;;;-8.62;70.60;102435.55;107525;1253;96479;-66
2024/01/21 01:37:09;;;;;;;75.10;34.30;;;;;;;-8.69;70.40;102441.88;107636;1251;110806;-66
2024/01/21 01:39:37;;;;;;;67.00;33.30;;;;;;;-8.77;70.58;102445.73;107601;1251;108466;-67
2024/01/21 01:42:06;;;;;;;75.40;35.10;;;;;;;-8.82;70.47;102454.16;107557;1254;107294;-64
2024/01/21 01:44:34;;;;;;;85.40;33.50;;;;;;;-8.83;70.44;102463.87;107498;1251;96468;-66
2024/01/21 01:47:03;;;;;;;79.10;35.70;;;;;;;-8.87;70.37;102463.11;107582;1256;98296;-66
2024/01/21 01:49:31;;;;;;;79.00;33.90;;;;;;;-8.94;70.16;102460.54;107574;1251;110157;-66
2024/01/21 01:52:01;;;;;;;77.60;34.30;;;;;;;-8.98;70.31;102467.05;107622;1253;107900;-65
2024/01/21 01:54:30;;;;;;;76.40;34.50;;;;;;;-9.00;70.52;102468.06;107519;1254;107664;-65
2024/01/21 01:56:59;;;;;;;73.30;34.60;;;;;;;-8.98;70.39;102468.28;107531;1254;96566;-66
2024/01/21 01:59:29;;;;;;;77.20;35.80;;;;;;;-8.96;70.92;102466.23;107618;1251;96389;-65
2024/01/21 02:01:58;;;;;;;81.40;35.30;;;;;;;-8.96;70.69;102461.19;107629;1251;110757;-64
2024/01/21 02:04:27;;;;;;;73.90;34.00;;;;;;;-8.94;70.80;102463.33;107586;1252;108238;-64
2024/01/21 02:06:55;;;;;;;79.60;35.60;;;;;;;-8.92;70.58;102469.10;107594;1253;107602;-62
2024/01/21 02:09:23;;;;;;;78.90;36.00;;;;;;;-8.91;70.67;102468.23;107636;1252;96476;-64
2024/01/21 02:11:52;;;;;;;72.00;33.70;;;;;;;-8.90;70.61;102476.95;107572;1254;96468;-63
2024/01/21 02:14:21;;;;;;;83.20;35.60;;;;;;;-8.93;70.50;102475.86;107619;1251;110534;-63
2024/01/21 02:16:49;;;;;;;87.60;37.90;;;;;;;-8.95;70.58;102481.03;107569;1250;108422;-65
2024/01/21 02:19:30;;;;;;;81.30;37.00;;;;;;;-8.94;70.66;102485.74;107514;1254;107325;-62
2024/01/21 02:21:59;;;;;;;82.00;34.00;;;;;;;-8.94;70.19;102479.66;107603;1254;96497;-64
2024/01/21 02:24:31;;;;;;;69.20;33.00;;;;;;;-9.05;69.85;102483.27;107550;1252;97006;-63
2024/01/21 02:27:00;;;;;;;72.10;32.70;;;;;;;-9.11;70.18;102482.11;107613;1253;109824;-65
2024/01/21 02:29:28;;;;;;;68.10;32.00;;;;;;;-9.12;70.03;102483.30;107562;1254;108366;-64
2024/01/21 02:31:58;;;;;;;69.50;31.70;;;;;;;-9.13;70.31;102493.36;107572;1253;108830;-64
2024/01/21 02:34:27;;;;;;;69.80;32.30;;;;;;;-9.12;70.54;102489.56;107538;1253;96490;-64
2024/01/21 02:36:56;;;;;;;79.90;32.90;;;;;;;-9.05;70.51;102497.52;107579;1254;96370;-64
2024/01/21 02:39:24;;;;;;;73.80;34.20;;;;;;;-8.97;70.49;102501.69;107629;1251;110418;-64
2024/01/21 02:41:53;;;;;;;76.00;35.30;;;;;;;-8.90;70.75;102500.62;107585;1251;106936;-64
2024/01/21 02:44:21;;;;;;;72.40;32.50;;;;;;;-8.82;70.78;102500.77;107579;1251;108762;-66
2024/01/21 02:46:49;;;;;;;75.70;32.10;;;;;;;-8.72;71.02;102511.73;107545;1251;96472;-65
2024/01/21 02:49:18;;;;;;;71.40;32.00;;;;;;;-8.66;70.84;102513.77;107555;1251;96504;-64
2024/01/21 02:51:47;;;;;;;72.40;34.50;;;;;;;-8.60;70.75;102520.66;107574;1251;111425;-65
2024/01/21 02:54:15;;;;;;;76.10;32.90;;;;;;;-8.54;70.60;102525.28;107580;1251;107924;-65
2024/01/21 02:56:44;;;;;;;69.00;31.40;;;;;;;-8.47;70.77;102525.59;107583;1254;107523;-66
2024/01/21 02:59:13;;;;;;;68.10;32.50;;;;;;;-8.39;70.75;102534.59;107614;1251;96565;-65
2024/01/21 03:01:42;;;;;;;68.60;32.70;;;;;;;-8.34;70.99;102539.54;107559;1257;96480;-64
2024/01/21 03:04:14;;;;;;;76.10;32.90;;;;;;;-8.24;71.10;102535.90;107523;1254;110430;-64
2024/01/21 03:06:42;;;;;;;75.40;33.20;;;;;;;-8.12;71.20;102549.34;107560;1254;109305;-65
2024/01/21 03:09:11;;;;;;;64.20;30.20;;;;;;;-7.99;71.43;102552.89;107531;1255;108447;-65
2024/01/21 03:11:39;;;;;;;74.80;30.80;;;;;;;-7.90;71.39;102550.94;107573;1254;96482;-66
2024/01/21 03:14:07;;;;;;;76.50;34.10;;;;;;;-7.80;71.46;102556.50;107579;1254;97042;-64
2024/01/21 03:16:36;;;;;;;73.40;30.90;;;;;;;-7.73;71.28;102561.16;107610;1254;110596;-64
2024/01/21 03:19:04;;;;;;;70.40;29.50;;;;;;;-7.68;71.26;102562.61;107627;1254;108094;-64
2024/01/21 03:21:33;;;;;;;60.60;27.40;;;;;;;-7.64;71.33;102562.15;107556;1254;108277;-64
2024/01/21 03:24:01;;;;;;;69.60;30.10;;;;;;;-7.61;71.15;102564.13;107655;1251;96389;-66
2024/01/21 03:26:30;;;;;;;75.70;34.60;;;;;;;-7.57;71.75;102562.96;107585;1251;96428;-66
2024/01/21 03:28:58;;;;;;;81.30;35.20;;;;;;;-7.50;71.81;102568.12;107603;1253;111193;-65
2024/01/21 03:31:28;;;;;;;85.80;40.00;;;;;;;-7.44;71.94;102568.57;107581;1252;109146;-65
2024/01/21 03:33:56;;;;;;;98.20;48.50;;;;;;;-7.38;72.64;102565.86;107572;1254;107576;-64
2024/01/21 03:36:25;;;;;;;93.20;44.80;;;;;;;-7.30;72.66;102569.47;107599;1256;96478;-64
2024/01/21 03:38:53;;;;;;;81.00;36.90;;;;;;;-7.26;73.11;102572.84;107586;1251;97010;-64
2024/01/21 03:41:22;;;;;;;84.70;41.00;;;;;;;-7.22;73.18;102575.51;107622;1251;110459;-63
2024/01/21 03:43:50;;;;;;;84.30;41.20;;;;;;;-7.18;73.05;102579.75;107560;1253;107907;-64
2024/01/21 03:46:18;;;;;;;85.50;40.20;;;;;;;-7.07;73.39;102582.87;107547;1254;107660;-64
2024/01/21 03:48:47;;;;;;;81.50;39.90;;;;;;;-6.93;73.38;102582.36;107585;1253;96488;-64
2024/01/21 03:51:16;;;;;;;74.40;37.80;;;;;;;-6.80;73.23;102581.31;107604;1254;96485;-63
2024/01/21 03:53:44;;;;;;;74.70;35.70;;;;;;;-6.74;73.14;102580.86;107589;1254;110489;-65
2024/01/21 03:56:19;;;;;;;72.90;36.10;;;;;;;-6.68;73.38;102586.35;107620;1253;106867;-63
2024/01/21 03:58:47;;;;;;;69.00;31.20;;;;;;;-6.62;73.31;102590.25;107591;1254;107023;-63
2024/01/21 04:01:17;;;;;;;74.90;33.60;;;;;;;-6.54;73.46;102590.52;107588;1254;96488;-64
2024/01/21 04:03:46;;;;;;;66.70;32.10;;;;;;;-6.48;73.27;102591.12;107619;1255;96686;-64
2024/01/21 04:06:14;;;;;;;66.00;31.20;;;;;;;-6.44;73.10;102595.35;107694;1251;110809;-65
2024/01/21 04:08:43;;;;;;;66.00;30.20;;;;;;;-6.38;73.25;102597.33;107549;1254;108642;-63
2024/01/21 04:11:11;;;;;;;76.90;36.50;;;;;;;-6.31;73.05;102597.77;107603;1254;107965;-63
2024/01/21 04:13:40;;;;;;;66.10;33.00;;;;;;;-6.23;73.33;102594.19;107522;1254;96465;-64
2024/01/21 04:16:08;;;;;;;82.50;34.20;;;;;;;-6.14;73.27;102600.05;107641;1254;96366;-64
2024/01/21 04:18:36;;;;;;;71.80;34.30;;;;;;;-6.08;73.38;102599.92;107549;1252;110926;-64
2024/01/21 04:21:05;;;;;;;73.50;33.30;;;;;;;-6.03;73.63;102604.35;107537;1253;108254;-63
2024/01/21 04:23:33;;;;;;;70.20;33.10;;;;;;;-5.96;73.57;102603.69;107554;1252;108315;-66
2024/01/21 04:26:02;;;;;;;64.90;32.50;;;;;;;-5.91;73.60;102601.11;107598;1254;96366;-64
2024/01/21 04:28:30;;;;;;;70.60;32.50;;;;;;;-5.86;73.41;102606.23;107569;1254;96365;-65
2024/01/21 04:30:58;;;;;;;68.60;32.90;;;;;;;-5.81;73.33;102608.36;107580;1253;110615;-62
2024/01/21 04:33:27;;;;;;;78.80;33.30;;;;;;;-5.77;73.41;102610.15;107610;1254;107593;-64
2024/01/21 04:35:55;;;;;;;76.20;31.80;;;;;;;-5.80;73.12;102614.50;107586;1254;107890;-63
2024/01/21 04:38:25;;;;;;;74.50;32.50;;;;;;;-5.82;72.83;102615.52;107595;1251;96532;-65
2024/01/21 04:40:54;;;;;;;72.70;31.20;;;;;;;-5.82;72.96;102624.60;107628;1256;97042;-65
2024/01/21 04:43:22;;;;;;;70.10;32.70;;;;;;;-5.84;73.09;102630.19;107558;1251;111389;-64
2024/01/21 04:45:50;;;;;;;72.00;31.40;;;;;;;-5.86;73.13;102632.43;107594;1254;109518;-64
2024/01/21 04:48:18;;;;;;;72.90;33.50;;;;;;;-5.83;73.34;102636.84;107575;1252;107449;-63
2024/01/21 04:50:47;;;;;;;72.60;34.60;;;;;;;-5.77;73.57;102632.88;107598;1254;96601;-63
2024/01/21 04:53:15;;;;;;;80.90;36.90;;;;;;;-5.69;73.83;102631.73;107585;1253;96938;-64
2024/01/21 04:55:43;;;;;;;79.50;37.00;;;;;;;-5.61;73.71;102635.30;107591;1250;110124;-64
2024/01/21 04:58:11;;;;;;;80.10;37.70;;;;;;;-5.58;73.60;102638.29;107606;1251;108490;-65
2024/01/21 05:00:40;;;;;;;80.30;38.30;;;;;;;-5.56;73.88;102644.24;107566;1255;107832;-64
2024/01/21 05:03:08;;;;;;;82.60;35.80;;;;;;;-5.50;73.83;102652.00;107545;1251;96597;-64
2024/01/21 05:05:37;;;;;;;73.60;35.90;;;;;;;-5.43;73.83;102660.97;107610;1251;96376;-65
2024/01/21 05:08:06;;;;;;;72.20;34.20;;;;;;;-5.41;73.39;102664.83;107604;1255;109651;-65
2024/01/21 05:10:35;;;;;;;69.40;33.50;;;;;;;-5.39;73.73;102666.08;107605;1251;106862;-64
2024/01/21 05:13:03;;;;;;;65.80;31.10;;;;;;;-5.36;73.51;102666.79;107561;1251;107584;-64
2024/01/21 05:15:32;;;;;;;62.40;31.00;;;;;;;-5.35;73.88;102664.54;107583;1251;96468;-64
2024/01/21 05:18:01;;;;;;;70.50;32.90;;;;;;;-5.30;73.80;102671.57;107599;1251;96628;-63
2024/01/21 05:20:29;;;;;;;85.20;37.90;;;;;;;-5.29;73.73;102670.36;107583;1251;110260;-64
2024/01/21 05:22:59;;;;;;;82.80;37.70;;;;;;;-5.26;73.78;102672.48;107551;1251;108060;-64
2024/01/21 05:25:27;;;;;;;91.30;37.20;;;;;;;-5.21;73.94;102675.67;107624;1256;107341;-64
2024/01/21 05:27:56;;;;;;;89.90;41.30;;;;;;;-5.16;73.64;102675.54;107558;1257;96503;-64
2024/01/21 05:30:24;;;;;;;105.10;46.60;;;;;;;-5.11;74.05;102675.23;107665;1254;96370;-64
2024/01/21 05:32:52;;;;;;;102.70;44.40;;;;;;;-5.07;73.71;102677.17;107606;1251;109524;-65
2024/01/21 05:35:24;;;;;;;81.60;38.50;;;;;;;-5.06;73.54;102678.41;107584;1251;108049;-65
2024/01/21 05:37:52;;;;;;;71.50;31.20;;;;;;;-5.09;73.22;102678.04;107588;1255;107562;-64
2024/01/21 05:40:21;;;;;;;60.80;28.80;;;;;;;-5.14;73.21;102682.02;107534;1254;96600;-64
2024/01/21 05:42:49;;;;;;;51.00;26.80;;;;;;;-5.22;73.39;102690.87;107622;1251;96434;-64
2024/01/21 05:45:17;;;;;;;60.50;29.60;;;;;;;-5.27;73.08;102692.40;107575;1255;110143;-65
2024/01/21 05:47:46;;;;;;;61.40;29.30;;;;;;;-5.26;73.54;102700.12;107555;1251;107291;-65
2024/01/21 05:50:14;;;;;;;59.50;29.80;;;;;;;-5.25;73.32;102709.05;107547;1255;107821;-64
2024/01/21 05:52:43;;;;;;;62.00;30.50;;;;;;;-5.25;73.54;102715.86;107542;1251;96468;-65
2024/01/21 05:55:11;;;;;;;59.80;29.70;;;;;;;-5.24;73.57;102714.48;107569;1251;96366;-65
2024/01/21 05:57:40;;;;;;;66.50;29.70;;;;;;;-5.23;73.62;102718.14;107657;1251;111005;-65
2024/01/21 06:00:10;;;;;;;62.50;29.30;;;;;;;-5.26;73.43;102720.24;107667;1251;106555;-66
2024/01/21 06:02:42;;;;;;;68.30;30.40;;;;;;;-5.27;73.46;102713.05;107571;1252;108565;-64
2024/01/21 06:05:10;;;;;;;60.20;28.20;;;;;;;-5.28;73.31;102712.34;107515;1255;96481;-64
2024/01/21 06:07:39;;;;;;;66.10;31.40;;;;;;;-5.28;73.55;102715.48;107568;1255;97000;-64
2024/01/21 06:10:08;;;;;;;64.90;31.00;;;;;;;-5.26;73.67;102715.52;107568;1251;110575;-64
2024/01/21 06:12:36;;;;;;;60.00;29.00;;;;;;;-5.28;73.20;102711.48;107604;1256;108037;-65
2024/01/21 06:15:06;;;;;;;54.30;28.50;;;;;;;-5.28;73.36;102712.52;107569;1254;107389;-63
2024/01/21 06:17:34;;;;;;;61.20;28.40;;;;;;;-5.27;73.52;102718.47;107633;1254;96510;-64
2024/01/21 06:20:03;;;;;;;55.30;27.30;;;;;;;-5.22;73.60;102716.06;107660;1255;96584;-65
2024/01/21 06:22:33;;;;;;;58.40;28.10;;;;;;;-5.13;73.82;102710.02;107553;1251;110918;-65
2024/01/21 06:25:03;;;;;;;57.70;28.40;;;;;;;-5.01;73.69;102715.70;107612;1256;108178;-65
2024/01/21 06:27:32;;;;;;;63.20;28.50;;;;;;;-4.94;73.94;102718.91;107569;1254;107691;-66
2024/01/21 06:30:18;;;;;;;64.40;25.90;;;;;;;-4.92;73.44;102719.45;107510;1251;96476;-65
2024/01/21 06:32:47;;;;;;;54.90;27.20;;;;;;;-4.90;73.41;102724.90;107603;1257;96381;-65
2024/01/21 06:35:29;;;;;;;49.90;26.30;;;;;;;-4.87;73.63;102724.91;107557;1254;110375;-65
2024/01/21 06:37:58;;;;;;;52.50;24.50;;;;;;;-4.85;73.59;102722.84;107641;1251;107662;-64
2024/01/21 06:40:27;;;;;;;52.60;26.00;;;;;;;-4.93;73.16;102723.30;107521;1251;107664;-64
2024/01/21 06:42:55;;;;;;;52.60;26.20;;;;;;;-5.00;73.36;102717.30;107527;1257;96445;-65
2024/01/21 06:45:24;;;;;;;54.30;26.20;;;;;;;-5.04;73.26;102720.94;107622;1251;96370;-64
2024/01/21 06:47:52;;;;;;;49.80;26.30;;;;;;;-5.05;73.30;102724.44;107547;1254;110506;-64
2024/01/21 06:50:27;;;;;;;66.40;32.80;;;;;;;-5.07;73.05;102721.11;107519;1256;107249;-65
2024/01/21 06:52:56;;;;;;;57.30;28.40;;;;;;;-5.05;73.18;102728.80;107626;1254;109032;-64
2024/01/21 06:55:24;;;;;;;52.50;26.60;;;;;;;-5.04;73.25;102730.73;107539;1256;96471;-65
2024/01/21 06:57:53;;;;;;;58.70;30.00;;;;;;;-5.04;73.17;102733.02;107540;1257;96372;-64
2024/01/21 07:00:21;;;;;;;59.00;27.70;;;;;;;-4.99;73.26;102739.00;107521;1254;111402;-64
2024/01/21 07:02:50;;;;;;;47.90;21.10;;;;;;;-4.93;73.41;102738.70;107634;1255;107903;-65
2024/01/21 07:05:19;;;;;;;46.00;20.70;;;;;;;-4.89;73.37;102739.42;107582;1252;108318;-64
2024/01/21 07:07:48;;;;;;;60.90;26.20;;;;;;;-4.74;73.70;102740.59;107623;1255;96395;-64
2024/01/21 07:10:17;;;;;;;40.60;18.90;;;;;;;-4.63;73.86;102739.79;107596;1257;97012;-65
2024/01/21 07:12:47;;;;;;;38.40;18.90;;;;;;;-4.54;73.87;102741.06;107566;1257;110614;-64
2024/01/21 07:15:15;;;;;;;43.30;18.80;;;;;;;-4.42;73.78;102732.73;107598;1255;106633;-66
2024/01/21 07:17:44;;;;;;;39.30;20.00;;;;;;;-4.29;74.19;102730.35;107614;1254;108305;-65
2024/01/21 07:20:13;;;;;;;50.10;22.50;;;;;;;-4.14;74.19;102735.86;107596;1251;96561;-66
2024/01/21 07:22:41;;;;;;;58.00;29.30;;;;;;;-3.99;74.09;102740.83;107642;1251;96405;-63
2024/01/21 07:25:14;;;;;;;54.30;27.40;;;;;;;-3.81;74.31;102746.14;107590;1251;109998;-64
2024/01/21 07:27:42;;;;;;;58.70;28.20;;;;;;;-3.63;74.19;102742.50;107574;1251;107328;-64
2024/01/21 07:30:12;;;;;;;59.00;29.60;;;;;;;-3.52;73.88;102747.45;107586;1257;107878;-65
2024/01/21 07:32:41;;;;;;;52.40;25.70;;;;;;;-3.37;73.92;102750.63;107605;1257;96575;-65
2024/01/21 07:35:10;;;;;;;48.20;24.70;;;;;;;-3.23;73.97;102750.99;107603;1255;97029;-66
2024/01/21 07:37:38;;;;;;;45.00;22.90;;;;;;;-3.08;73.35;102755.23;107641;1251;111024;-65
2024/01/21 07:40:07;;;;;;;53.50;27.40;;;;;;;-2.92;73.60;102753.46;107630;1257;108094;-65
2024/01/21 07:42:36;;;;;;;61.70;30.70;;;;;;;-2.76;73.50;102750.83;107615;1255;107420;-63
2024/01/21 07:45:05;;;;;;;54.80;27.80;;;;;;;-2.61;73.77;102757.14;107618;1251;96481;-64
2024/01/21 07:47:34;;;;;;;55.40;27.00;;;;;;;-2.51;73.55;102762.55;107666;1251;97230;-64
2024/01/21 07:50:04;;;;;;;58.00;28.50;;;;;;;-2.42;73.48;102768.70;107616;1254;108906;-63
2024/01/21 07:52:33;;;;;;;56.00;29.40;;;;;;;-2.40;72.94;102767.27;107657;1255;108088;-64
2024/01/21 07:55:01;;;;;;;62.10;32.40;;;;;;;-2.43;72.72;102776.77;107684;1251;107916;-67
2024/01/21 07:57:30;;;;;;;66.00;31.70;;;;;;;-2.45;72.28;102775.02;107609;1251;96497;-64
2024/01/21 07:59:58;;;;;;;63.70;31.70;;;;;;;-2.51;72.22;102781.36;107630;1255;96362;-65
2024/01/21 08:02:27;;;;;;;75.40;35.00;;;;;;;-2.62;71.98;102791.04;107666;1257;109854;-65
2024/01/21 08:04:56;;;;;;;74.90;33.10;;;;;;;-2.66;72.20;102788.75;107592;1256;108187;-66
2024/01/21 08:07:26;;;;;;;74.60;35.70;;;;;;;-2.71;71.89;102793.69;107598;1255;107407;-65
2024/01/21 08:09:55;;;;;;;65.00;33.50;;;;;;;-2.74;72.30;102798.59;107592;1256;96578;-65
2024/01/21 08:12:23;;;;;;;70.60;34.90;;;;;;;-2.68;72.23;102803.34;107597;1256;96485;-64
2024/01/21 08:14:53;;;;;;;74.40;36.80;;;;;;;-2.60;72.56;102807.73;107629;1255;110071;-64
2024/01/21 08:17:21;;;;;;;87.90;39.10;;;;;;;-2.50;72.58;102807.89;107652;1254;108289;-64
2024/01/21 08:19:50;;;;;;;57.60;28.60;;;;;;;-2.30;72.78;102807.15;107598;1250;108446;-64
2024/01/21 08:22:18;;;;;;;49.80;23.70;;;;;;;-2.10;72.06;102803.77;107587;1254;96500;-65
2024/01/21 08:24:51;;;;;;;44.80;21.00;;;;;;;-2.01;71.40;102803.03;107677;1257;96359;-65
2024/01/21 08:27:20;;;;;;;36.70;19.80;;;;;;;-1.92;70.94;102811.09;107596;1251;110226;-65
2024/01/21 08:29:48;;;;;;;39.30;19.40;;;;;;;-1.85;70.88;102810.54;107586;1254;108569;-64
2024/01/21 08:32:17;;;;;;;44.10;21.50;;;;;;;-1.81;70.73;102815.80;107565;1251;108352;-64
2024/01/21 08:34:45;;;;;;;39.00;20.70;;;;;;;-1.69;70.58;102815.77;107599;1251;96487;-63
2024/01/21 08:37:14;;;;;;;41.10;21.00;;;;;;;-1.52;70.39;102821.66;107555;1254;96580;-65
2024/01/21 08:39:43;;;;;;;47.10;20.40;;;;;;;-1.43;70.25;102819.85;107635;1251;110567;-65
2024/01/21 08:42:19;;;;;;;39.30;20.50;;;;;;;-1.28;69.30;102830.86;107631;1251;108274;-65
2024/01/21 08:44:48;;;;;;;49.60;26.50;;;;;;;-1.21;68.20;102823.77;107141;1255;677905;-66
2024/01/21 08:47:16;;;;;;;51.20;23.10;;;;;;;-1.05;68.44;102824.38;107551;1251;96549;-65
2024/01/21 08:49:44;;;;;;;47.30;23.00;;;;;;;-0.74;67.52;102824.50;107555;1251;96371;-65
2024/01/21 08:52:13;;;;;;;41.40;22.20;;;;;;;-0.41;66.60;102823.68;107660;1251;110511;-64
2024/01/21 08:54:42;;;;;;;34.90;19.60;;;;;;;0.35;65.19;102815.61;107629;1251;108322;-65
2024/01/21 08:57:11;;;;;;;38.90;20.00;;;;;;;1.05;63.71;102814.63;107546;1254;107562;-65
2024/01/21 08:59:39;;;;;;;37.70;20.00;;;;;;;1.15;63.45;102812.16;107643;1254;96578;-65
2024/01/21 09:02:08;;;;;;;44.00;20.20;;;;;;;1.72;62.61;102810.11;107556;1254;96510;-65
2024/01/21 09:04:40;;;;;;;44.00;19.90;;;;;;;2.31;61.55;102808.78;107680;1257;110076;-64
2024/01/21 09:07:08;;;;;;;40.90;20.40;;;;;;;2.98;61.35;102814.40;107623;1255;106609;-66
2024/01/21 09:09:37;;;;;;;38.60;20.00;;;;;;;3.66;62.01;102812.14;107609;1254;107728;-66
2024/01/21 09:12:07;;;;;;;36.70;20.30;;;;;;;4.28;61.23;102818.59;107582;1255;96482;-66
2024/01/21 09:14:37;;;;;;;38.30;21.40;;;;;;;4.90;60.88;102818.33;107637;1254;96465;-66
2024/01/21 09:17:05;;;;;;;33.90;19.70;;;;;;;5.48;60.52;102810.91;107615;1254;110571;-66
2024/01/21 09:19:33;;;;;;;34.60;18.90;;;;;;;6.04;60.10;102812.15;107604;1254;108842;-66
2024/01/21 09:22:02;;;;;;;34.90;18.30;;;;;;;6.66;58.72;102807.70;107612;1255;108160;-67
2024/01/21 09:24:30;;;;;;;30.30;16.30;;;;;;;7.17;55.81;102809.42;107616;1253;96460;-66
2024/01/21 09:26:59;;;;;;;24.50;13.90;;;;;;;7.69;53.65;102814.02;107613;1251;96367;-66
2024/01/21 09:29:27;;;;;;;22.10;11.50;;;;;;;7.95;50.36;102811.08;107673;1251;110138;-65
2024/01/21 09:31:57;;;;;;;19.50;10.40;;;;;;;8.24;49.35;102812.29;107599;1255;108314;-65
2024/01/21 09:34:25;;;;;;;18.20;9.60;;;;;;;8.50;46.75;102815.75;107620;1257;108050;-65
2024/01/21 09:36:54;;;;;;;17.10;9.10;;;;;;;8.70;48.50;102809.27;107649;1256;96496;-64
2024/01/21 09:39:22;;;;;;;11.10;6.60;;;;;;;9.12;50.34;102802.05;107497;1251;96477;-65
2024/01/21 09:41:52;;;;;;;12.50;7.60;;;;;;;9.37;48.83;102801.52;107509;1253;109802;-65
2024/01/21 09:44:25;;;;;;;14.90;7.90;;;;;;;9.57;45.50;102809.98;107636;1256;108952;-64
2024/01/21 09:46:58;;;;;;;;;;;;;;;9.65;44.48;102808.83;107574;1254;108535;-64
2024/01/21 09:49:27;;;;;;;15.30;7.80;;;;;;;9.42;41.84;102813.61;107483;1251;96568;-65
2024/01/21 09:51:56;;;;;;;16.10;8.00;;;;;;;9.38;41.89;102817.92;107602;1254;96523;-64
2024/01/21 09:54:25;;;;;;;10.30;6.50;;;;;;;9.47;42.69;102813.55;107679;1251;109072;-65
2024/01/21 09:56:54;;;;;;;15.40;7.00;;;;;;;9.59;41.52;102814.20;107580;1254;108315;-66
2024/01/21 09:59:22;;;;;;;15.40;7.30;;;;;;;9.39;40.81;102816.28;107678;1254;107823;-66
2024/01/21 10:01:50;;;;;;;11.10;6.70;;;;;;;9.53;41.51;102809.13;107611;1254;96491;-67
2024/01/21 10:04:20;;;;;;;13.60;6.90;;;;;;;9.92;42.23;102813.02;107618;1256;97045;-66
2024/01/21 10:06:52;;;;;;;10.30;6.50;;;;;;;10.13;41.04;102808.48;107573;1251;109947;-65
2024/01/21 10:09:22;;;;;;;9.80;6.40;;;;;;;10.58;41.30;102813.23;107487;1250;108690;-66
2024/01/21 10:11:56;;;;;;;10.90;6.30;;;;;;;10.98;41.25;102812.61;107537;1254;107866;-65
2024/01/21 10:14:26;;;;;;;9.60;5.90;;;;;;;11.35;40.17;102815.11;107683;1254;96561;-63
2024/01/21 10:16:59;;;;;;;10.20;6.60;;;;;;;10.34;38.36;102821.87;107669;1256;97044;-65
2024/01/21 10:19:31;;;;;;;10.80;7.00;;;;;;;9.05;40.15;102829.60;107667;1253;109645;-64
2024/01/21 10:22:07;;;;;;;10.30;7.10;;;;;;;8.20;42.12;102831.22;107633;1254;108580;-63
2024/01/21 10:24:43;;;;;;;15.70;7.60;;;;;;;7.40;43.19;102840.75;107591;1253;108188;-64
2024/01/21 10:27:13;;;;;;;15.20;8.10;;;;;;;6.83;44.39;102841.81;107620;1253;96583;-64
2024/01/21 10:29:44;;;;;;;12.50;7.00;;;;;;;6.42;45.45;102846.27;107670;1253;97032;-64
2024/01/21 10:32:14;;;;;;;14.80;7.30;;;;;;;6.20;46.22;102849.57;107645;1254;110841;-63
2024/01/21 10:34:46;;;;;;;11.30;7.40;;;;;;;6.84;46.44;102851.27;107641;1254;107922;-65
2024/01/21 10:37:15;;;;;;;12.30;7.00;;;;;;;7.16;46.61;102853.02;107644;1251;108144;-64
2024/01/21 10:39:46;;;;;;;11.80;7.20;;;;;;;6.85;46.91;102852.42;107650;1256;96460;-63
2024/01/21 10:42:15;;;;;;;12.40;6.90;;;;;;;6.85;47.26;102851.73;107500;1251;97280;-64
2024/01/21 10:44:44;;;;;;;13.60;7.40;;;;;;;7.40;46.38;102852.37;107701;1251;110485;-64
2024/01/21 10:47:13;;;;;;;16.10;7.60;;;;;;;7.77;45.31;102855.25;107595;1254;108318;-64
2024/01/21 10:49:42;;;;;;;12.50;6.60;;;;;;;7.80;46.28;102848.17;107616;1253;107543;-63
2024/01/21 10:52:14;;;;;;;14.20;6.30;;;;;;;7.63;45.72;102847.46;107596;1254;96481;-64
2024/01/21 10:54:44;;;;;;;11.40;5.70;;;;;;;7.41;45.67;102854.30;107657;1254;96370;-64
2024/01/21 10:57:13;;;;;;;7.70;5.10;;;;;;;8.01;45.69;102850.64;107602;1254;108539;-65
2024/01/21 10:59:45;;;;;;;13.70;5.90;;;;;;;8.84;44.81;102850.98;107591;1254;107955;-65
2024/01/21 11:02:19;;;;;;;14.90;7.10;;;;;;;9.63;42.61;102856.07;107559;1251;107040;-64
2024/01/21 11:04:47;;;;;;;14.80;7.50;;;;;;;10.29;41.31;102855.84;107454;1251;96487;-65
2024/01/21 11:07:17;;;;;;;11.70;6.30;;;;;;;10.98;40.20;102856.92;107540;1254;96496;-65